Aviation Digital Data Service (ADDS)

Output produced by METARs form (1054 UTC 19 January 2019)
found at http://www.aviationweather.gov/metar/data/
 
EYKA 191050Z 25011KT 9999 BKN008 M02/M04 Q1016 R08/320095
TAF AMD EYKA 191010Z 1910/2006 24010KT 9000 BKN010 
     TEMPO 1910/1916 OVC005 
     BECMG 1916/1917 OVC005 
     BECMG 2000/2002 OVC010
       
EYPA 191050Z 28004KT 230V320 CAVOK 02/M04 Q1015 R01/910295
TAF EYPA 190502Z 1906/2006 31008KT 9000 SCT030 
     BECMG 1910/1912 25018KT BKN015 
     TEMPO 1922/2006 3000 RASN BKN006 BKN012CB
       
EYSA 191050Z 27010KT 9999 FEW032 M02/M04 Q1014 R32R/29//95 BLU NOSIG
TAF EYSA 190803Z 1909/1918 24010KT 9000 SCT030 
     BECMG 1912/1913 NSC
       
EYVI 191050Z 24010KT 9999 -SN OVC005 M03/M04 Q1015 R19/5/0294 NOSIG
TAF EYVI 190502Z 1906/2006 24010KT 9000 OVC003 
     PROB40 
     TEMPO 1906/1909 3000 SHSN BKN012CB 
     BECMG 1909/1910 BKN010 
     TEMPO 1919/1924 3000 MIFG BR SCT030